Terminal Aerodrome Forecast
Issued by NWS

Home | Current Version | Previous Version | Graphics & Text | Print | Product List | Glossary On
Versions: 1 2 3 4 5 6 7 8 9 10 11 12 13 14 15 16
000
FTUS43 KGRB 031600 AAC
TAFATW
TAF AMD
KATW 031632Z 0317/0412 16009G15KT 1 1/2SM -FZDZSN BKN014
      TEMPO 0317/0319 1/2SM SN FZFG BKN006
     FM032000 21009KT 3SM -SN BKN015
     FM032200 24009KT 6SM -SN OVC018
     FM032300 27010KT P6SM -SN SCT009 OVC025
     FM040200 28012G20KT P6SM SCT030 SCT100=

USA.gov is the U.S. government's official web portal to all federal, state and local government web resources and services.